createdAt,value
2018-11-01T00:01:47.888Z,4.07
2018-11-01T00:06:50.004Z,2.93
2018-11-01T00:11:52.119Z,4.03
2018-11-01T00:16:54.538Z,4.10
2018-11-01T00:21:56.692Z,2.73
2018-11-01T00:26:58.871Z,3.40
2018-11-01T00:32:00.994Z,3.47
2018-11-01T00:37:03.855Z,3.57
2018-11-01T00:42:06.574Z,2.90
2018-11-01T00:47:08.715Z,3.20
2018-11-01T00:52:10.841Z,3.40
2018-11-01T00:57:13.149Z,2.83
2018-11-01T01:02:15.848Z,3.27
2018-11-01T01:07:17.959Z,3.43
2018-11-01T01:12:20.088Z,2.83
2018-11-01T01:17:22.245Z,3.50
2018-11-01T01:22:24.365Z,2.70
2018-11-01T01:27:26.763Z,3.60
2018-11-01T01:32:28.897Z,3.20
2018-11-01T01:37:31.014Z,2.80
2018-11-01T01:42:35.088Z,3.23
2018-11-01T01:47:37.182Z,3.50
2018-11-01T01:52:39.468Z,2.97
2018-11-01T01:57:41.569Z,3.10
2018-11-01T02:02:44.975Z,2.30
2018-11-01T02:07:47.085Z,2.50
2018-11-01T02:12:49.191Z,2.23
2018-11-01T02:17:51.379Z,3.07
2018-11-01T02:22:53.497Z,2.23
2018-11-01T02:28:01.390Z,2.73
2018-11-01T02:33:03.512Z,3.10
2018-11-01T02:38:05.754Z,2.67
2018-11-01T02:43:07.815Z,2.90
2018-11-01T02:48:09.923Z,2.60
2018-11-01T02:53:12.017Z,2.60
2018-11-01T02:58:14.141Z,2.53
2018-11-01T03:03:16.255Z,2.77
2018-11-01T03:08:18.391Z,3.40
2018-11-01T03:13:20.501Z,3.83
2018-11-01T03:18:22.646Z,2.70
2018-11-01T03:23:24.773Z,3.30
2018-11-01T03:28:27.250Z,2.50
2018-11-01T03:33:29.345Z,3.00
2018-11-01T03:38:31.571Z,3.20
2018-11-01T03:43:33.605Z,2.93
2018-11-01T03:48:35.689Z,2.97
2018-11-01T03:53:37.898Z,2.80
2018-11-01T03:58:39.892Z,3.10
2018-11-01T04:03:42.012Z,2.87
2018-11-01T04:08:44.504Z,2.40
2018-11-01T04:13:46.719Z,2.90
2018-11-01T04:18:48.784Z,3.43
2018-11-01T04:23:50.913Z,3.37
2018-11-01T04:28:52.998Z,2.53
2018-11-01T04:33:55.143Z,2.80
2018-11-01T04:38:57.271Z,3.90
2018-11-01T04:43:59.382Z,3.60
2018-11-01T04:49:01.519Z,3.27
2018-11-01T04:54:03.684Z,2.93
2018-11-01T04:59:05.834Z,3.27
2018-11-01T05:04:07.935Z,2.90
2018-11-01T05:09:10.062Z,3.07
2018-11-01T05:14:12.179Z,2.80
2018-11-01T05:19:14.323Z,3.10
2018-11-01T05:24:16.451Z,3.90
2018-11-01T05:29:18.618Z,2.40
2018-11-01T05:34:20.747Z,2.90
2018-11-01T05:39:22.794Z,3.10
2018-11-01T05:44:24.899Z,3.27
2018-11-01T05:49:27.003Z,3.20
2018-11-01T05:54:29.312Z,3.33
2018-11-01T05:59:31.432Z,3.23
2018-11-01T06:04:33.564Z,3.00
2018-11-01T06:09:35.728Z,3.20
2018-11-01T06:14:37.821Z,4.03
2018-11-01T06:19:39.973Z,3.93
2018-11-01T06:24:42.206Z,3.70
2018-11-01T06:29:44.332Z,3.80
2018-11-01T06:34:49.613Z,4.57
2018-11-01T06:39:51.707Z,3.37
2018-11-01T06:44:53.830Z,3.37
2018-11-01T06:49:55.989Z,3.93
2018-11-01T06:54:58.112Z,3.37
2018-11-01T07:00:00.218Z,3.03
2018-11-01T07:05:02.337Z,3.87
2018-11-01T07:10:06.094Z,3.43
2018-11-01T07:15:09.614Z,3.23
2018-11-01T07:20:13.847Z,3.77
2018-11-01T07:25:16.765Z,3.73
2018-11-01T07:30:18.858Z,3.57
2018-11-01T07:35:20.942Z,3.03
2018-11-01T07:40:23.047Z,4.57
2018-11-01T07:45:25.166Z,4.53
2018-11-01T07:50:27.341Z,3.73
2018-11-01T07:55:29.444Z,3.63
2018-11-01T08:00:31.507Z,3.60
2018-11-01T08:05:33.619Z,4.93
2018-11-01T08:10:35.779Z,4.87
2018-11-01T08:15:37.914Z,4.23
2018-11-01T08:20:40.171Z,4.67
2018-11-01T08:25:42.147Z,5.37
2018-11-01T08:30:44.320Z,4.40
2018-11-01T08:35:46.416Z,5.40
2018-11-01T08:40:48.524Z,5.47
2018-11-01T08:45:50.638Z,4.97
2018-11-01T08:50:52.771Z,4.53
2018-11-01T08:55:54.928Z,4.43
2018-11-01T09:00:57.027Z,4.60
2018-11-01T09:05:59.151Z,4.90
2018-11-01T09:11:01.294Z,4.10
2018-11-01T09:16:03.433Z,4.63
2018-11-01T09:21:05.569Z,4.40
2018-11-01T09:26:07.722Z,4.00
2018-11-01T09:31:09.853Z,4.20
2018-11-01T09:36:11.963Z,5.07
2018-11-01T09:41:14.120Z,4.90
2018-11-01T09:46:16.442Z,4.60
2018-11-01T09:51:18.415Z,6.20
2018-11-01T09:56:20.591Z,6.47
2018-11-01T10:01:22.647Z,4.90
2018-11-01T10:06:24.778Z,5.37
2018-11-01T10:11:26.899Z,5.03
2018-11-01T10:16:29.126Z,5.63
2018-11-01T10:21:31.326Z,5.63
2018-11-01T10:26:33.430Z,4.43
2018-11-01T10:31:35.552Z,5.10
2018-11-01T10:36:37.677Z,5.40
2018-11-01T10:41:39.854Z,5.60
2018-11-01T10:46:41.953Z,5.30
2018-11-01T10:51:44.055Z,6.10
2018-11-01T10:56:46.190Z,4.57
2018-11-01T11:01:53.961Z,5.40
2018-11-01T11:06:56.094Z,4.83
2018-11-01T11:11:58.245Z,5.70
2018-11-01T11:17:00.418Z,5.00
2018-11-01T11:22:02.566Z,6.40
2018-11-01T11:27:05.434Z,6.03
2018-11-01T11:32:07.583Z,5.33
2018-11-01T11:37:09.694Z,5.07
2018-11-01T11:42:11.779Z,5.80
2018-11-01T11:47:13.955Z,6.20
2018-11-01T11:52:16.080Z,7.00
2018-11-01T11:57:18.183Z,6.90
2018-11-01T12:02:20.365Z,6.03
2018-11-01T12:07:22.561Z,7.60
2018-11-01T12:12:24.685Z,7.57
2018-11-01T12:17:26.825Z,6.90
2018-11-01T12:22:29.083Z,7.33
2018-11-01T12:27:31.154Z,6.30
2018-11-01T12:32:33.281Z,6.30
2018-11-01T12:37:35.477Z,6.80
2018-11-01T12:42:37.599Z,7.30
2018-11-01T12:47:40.019Z,7.20
2018-11-01T12:52:42.172Z,7.10
2018-11-01T12:57:44.291Z,7.67
2018-11-01T13:02:46.400Z,7.73
2018-11-01T13:07:48.491Z,7.67
2018-11-01T13:12:50.617Z,7.17
2018-11-01T13:17:52.835Z,7.90
2018-11-01T13:22:54.944Z,8.63
2018-11-01T13:27:57.095Z,7.30
2018-11-01T13:32:59.215Z,7.80
2018-11-01T13:38:01.343Z,7.23
2018-11-01T13:43:03.480Z,6.23
2018-11-01T13:48:05.832Z,6.60
2018-11-01T13:53:07.896Z,7.00
2018-11-01T13:58:10.001Z,6.87
2018-11-01T14:03:12.119Z,9.07
2018-11-01T14:08:14.236Z,8.27
2018-11-01T14:13:16.505Z,8.43
2018-11-01T14:18:18.500Z,7.50
2018-11-01T14:23:20.923Z,6.80
2018-11-01T14:28:23.718Z,7.20
2018-11-01T14:33:25.899Z,8.70
2018-11-01T14:38:28.035Z,11.80
2018-11-01T14:43:30.188Z,13.23
2018-11-01T14:48:32.327Z,13.20
2018-11-01T14:53:34.974Z,14.40
2018-11-01T14:58:38.216Z,13.87
2018-11-01T15:03:39.178Z,13.43
2018-11-01T15:08:41.311Z,14.63
2018-11-01T15:13:43.666Z,18.03
2018-11-01T15:18:46.798Z,23.30
2018-11-01T15:23:49.014Z,22.70
2018-11-01T15:28:51.150Z,22.30
2018-11-01T15:33:53.694Z,20.37
2018-11-01T15:38:55.801Z,17.80
2018-11-01T15:43:57.976Z,21.37
2018-11-01T15:49:00.131Z,24.10
2018-11-01T15:54:02.275Z,19.13
2018-11-01T15:59:04.740Z,22.27
2018-11-01T16:04:06.961Z,22.63
2018-11-01T16:09:10.457Z,24.37
2018-11-01T16:14:12.584Z,22.20
2018-11-01T16:19:15.582Z,22.07
2018-11-01T16:24:17.784Z,21.80
2018-11-01T16:29:19.965Z,21.00
2018-11-01T16:34:22.153Z,22.17
2018-11-01T16:39:24.305Z,19.17
2018-11-01T16:44:26.431Z,23.20
2018-11-01T16:49:28.591Z,21.42
2018-11-01T16:54:30.746Z,22.07
2018-11-01T16:59:32.955Z,22.90
2018-11-01T17:04:35.107Z,22.70
2018-11-01T17:09:37.306Z,23.53
2018-11-01T17:14:39.458Z,19.93
2018-11-01T17:19:41.642Z,24.70
2018-11-01T17:24:43.813Z,22.00
2018-11-01T17:29:46.028Z,23.47
2018-11-01T17:34:48.212Z,23.77
2018-11-01T17:39:50.392Z,22.70
2018-11-01T17:44:52.556Z,23.83
2018-11-01T17:49:54.758Z,22.83
2018-11-01T17:54:56.980Z,23.50
2018-11-01T17:59:59.143Z,21.77
2018-11-01T18:05:01.329Z,25.10
2018-11-01T18:10:03.674Z,22.80
2018-11-01T18:20:22.065Z,23.23
2018-11-01T18:25:24.304Z,23.83
2018-11-01T18:30:26.512Z,23.20
2018-11-01T18:35:28.663Z,20.37
2018-11-01T18:40:30.880Z,23.40
2018-11-01T18:45:33.114Z,19.63
2018-11-01T18:50:35.307Z,21.37
2018-11-01T18:55:37.475Z,20.70
2018-11-01T19:00:39.728Z,17.00
2018-11-01T19:05:41.885Z,17.80
2018-11-01T19:10:44.047Z,18.70
2018-11-01T19:15:46.262Z,24.27
2018-11-01T19:20:48.465Z,23.77
2018-11-01T19:25:50.759Z,22.10
2018-11-01T19:30:53.156Z,23.97
2018-11-01T19:35:55.723Z,24.67
2018-11-01T19:40:58.378Z,24.77
2018-11-01T19:46:00.874Z,27.23
2018-11-01T19:51:03.193Z,25.03
2018-11-01T19:56:07.029Z,28.33
2018-11-01T20:01:09.766Z,23.23
2018-11-01T20:06:12.084Z,23.57
2018-11-01T20:11:14.890Z,26.20
2018-11-01T20:16:17.941Z,23.67
2018-11-01T20:21:20.811Z,24.50
2018-11-01T20:26:25.888Z,24.77
2018-11-01T20:31:32.019Z,22.97
2018-11-01T20:36:34.667Z,26.20
2018-11-01T20:41:37.118Z,21.70
2018-11-01T20:46:39.504Z,25.07
2018-11-01T20:51:41.717Z,23.30
2018-11-01T20:56:44.021Z,21.60
2018-11-01T21:01:46.410Z,24.03
2018-11-01T21:06:48.633Z,23.23
2018-11-01T21:11:51.049Z,22.73
2018-11-01T21:16:53.209Z,23.10
2018-11-01T21:21:55.349Z,20.60
2018-11-01T21:26:57.568Z,21.00
2018-11-01T21:31:59.832Z,21.17
2018-11-01T21:37:02.239Z,21.90
2018-11-01T21:42:04.841Z,20.90
2018-11-01T21:47:07.066Z,19.73
2018-11-01T21:52:09.250Z,17.53
2018-11-01T21:57:12.052Z,17.80
2018-11-01T22:02:14.227Z,18.50
2018-11-01T22:07:16.401Z,18.13
2018-11-01T22:12:18.606Z,17.37
2018-11-01T22:17:20.763Z,19.57
2018-11-01T22:22:22.986Z,17.80
2018-11-01T22:27:25.186Z,19.10
2018-11-01T22:32:27.348Z,16.53
2018-11-01T22:37:29.560Z,18.00
2018-11-01T22:42:31.878Z,17.80
2018-11-01T22:47:34.075Z,14.70
2018-11-01T22:52:36.259Z,18.00
2018-11-01T22:57:38.409Z,16.73
2018-11-01T23:02:40.790Z,15.80
2018-11-01T23:07:42.957Z,19.20
2018-11-01T23:12:45.127Z,15.77
2018-11-01T23:17:47.277Z,18.70
2018-11-01T23:22:49.432Z,15.40
2018-11-01T23:27:51.607Z,16.87
2018-11-01T23:32:53.792Z,18.80
2018-11-01T23:38:01.682Z,15.60
2018-11-01T23:43:09.678Z,17.50
2018-11-01T23:48:11.407Z,16.27
2018-11-01T23:53:17.038Z,18.27
2018-11-01T23:58:19.230Z,14.83
